sensor_id;sensor_type;location;lat;lon;timestamp;P1;durP1;ratioP1;P2;durP2;ratioP2
73132;SDS011;61320;52.008;4.530;2023-06-14T00:01:46;5.09;;;5.09;;
73132;SDS011;61320;52.008;4.530;2023-06-14T00:04:12;5.12;;;5.12;;
73132;SDS011;61320;52.008;4.530;2023-06-14T00:06:38;5.03;;;5.03;;
73132;SDS011;61320;52.008;4.530;2023-06-14T00:09:04;5.32;;;5.32;;
73132;SDS011;61320;52.008;4.530;2023-06-14T00:11:30;5.36;;;5.36;;
73132;SDS011;61320;52.008;4.530;2023-06-14T00:13:56;5.19;;;5.19;;
73132;SDS011;61320;52.008;4.530;2023-06-14T00:16:22;5.39;;;5.39;;
73132;SDS011;61320;52.008;4.530;2023-06-14T00:18:48;5.20;;;5.20;;
73132;SDS011;61320;52.008;4.530;2023-06-14T00:21:14;5.21;;;5.21;;
73132;SDS011;61320;52.008;4.530;2023-06-14T00:23:39;5.70;;;5.70;;
73132;SDS011;61320;52.008;4.530;2023-06-14T00:26:05;5.38;;;5.38;;
73132;SDS011;61320;52.008;4.530;2023-06-14T00:28:30;5.47;;;5.47;;
73132;SDS011;61320;52.008;4.530;2023-06-14T00:30:56;5.67;;;5.67;;
73132;SDS011;61320;52.008;4.530;2023-06-14T00:33:21;5.85;;;5.85;;
73132;SDS011;61320;52.008;4.530;2023-06-14T00:35:47;5.90;;;5.90;;
73132;SDS011;61320;52.008;4.530;2023-06-14T00:38:12;5.94;;;5.94;;
73132;SDS011;61320;52.008;4.530;2023-06-14T00:40:38;5.67;;;5.67;;
73132;SDS011;61320;52.008;4.530;2023-06-14T00:43:04;5.92;;;5.92;;
73132;SDS011;61320;52.008;4.530;2023-06-14T00:45:29;5.76;;;5.76;;
73132;SDS011;61320;52.008;4.530;2023-06-14T00:47:56;5.54;;;5.54;;
73132;SDS011;61320;52.008;4.530;2023-06-14T00:50:22;5.46;;;5.46;;
73132;SDS011;61320;52.008;4.530;2023-06-14T00:52:49;5.64;;;5.64;;
73132;SDS011;61320;52.008;4.530;2023-06-14T00:55:15;5.57;;;5.57;;
73132;SDS011;61320;52.008;4.530;2023-06-14T00:57:40;5.62;;;5.62;;
73132;SDS011;61320;52.008;4.530;2023-06-14T01:00:07;5.27;;;5.27;;
73132;SDS011;61320;52.008;4.530;2023-06-14T01:02:35;5.47;;;5.47;;
73132;SDS011;61320;52.008;4.530;2023-06-14T01:05:04;5.77;;;5.77;;
73132;SDS011;61320;52.008;4.530;2023-06-14T01:07:48;5.52;;;5.52;;
73132;SDS011;61320;52.008;4.530;2023-06-14T01:10:29;5.99;;;5.99;;
73132;SDS011;61320;52.008;4.530;2023-06-14T01:15:34;6.02;;;6.02;;
73132;SDS011;61320;52.008;4.530;2023-06-14T01:18:02;5.70;;;5.70;;
73132;SDS011;61320;52.008;4.530;2023-06-14T01:20:29;5.62;;;5.62;;
73132;SDS011;61320;52.008;4.530;2023-06-14T01:22:57;5.85;;;5.85;;
73132;SDS011;61320;52.008;4.530;2023-06-14T01:25:24;5.67;;;5.67;;
73132;SDS011;61320;52.008;4.530;2023-06-14T01:27:51;5.63;;;5.63;;
73132;SDS011;61320;52.008;4.530;2023-06-14T01:30:21;5.57;;;5.57;;
73132;SDS011;61320;52.008;4.530;2023-06-14T01:32:50;5.76;;;5.76;;
73132;SDS011;61320;52.008;4.530;2023-06-14T01:35:18;5.93;;;5.93;;
73132;SDS011;61320;52.008;4.530;2023-06-14T01:37:44;5.89;;;5.89;;
73132;SDS011;61320;52.008;4.530;2023-06-14T01:40:13;5.84;;;5.84;;
73132;SDS011;61320;52.008;4.530;2023-06-14T01:42:40;5.52;;;5.52;;
73132;SDS011;61320;52.008;4.530;2023-06-14T01:45:08;5.59;;;5.59;;
73132;SDS011;61320;52.008;4.530;2023-06-14T01:47:35;5.45;;;5.45;;
73132;SDS011;61320;52.008;4.530;2023-06-14T01:50:02;5.77;;;5.77;;
73132;SDS011;61320;52.008;4.530;2023-06-14T01:52:29;5.80;;;5.80;;
73132;SDS011;61320;52.008;4.530;2023-06-14T01:54:54;6.03;;;6.03;;
73132;SDS011;61320;52.008;4.530;2023-06-14T01:57:20;5.84;;;5.84;;
73132;SDS011;61320;52.008;4.530;2023-06-14T01:59:47;5.90;;;5.90;;
73132;SDS011;61320;52.008;4.530;2023-06-14T02:02:13;5.83;;;5.83;;
73132;SDS011;61320;52.008;4.530;2023-06-14T02:04:40;5.89;;;5.89;;
73132;SDS011;61320;52.008;4.530;2023-06-14T02:07:06;5.80;;;5.80;;
73132;SDS011;61320;52.008;4.530;2023-06-14T02:09:33;5.93;;;5.93;;
73132;SDS011;61320;52.008;4.530;2023-06-14T02:11:59;5.71;;;5.71;;
73132;SDS011;61320;52.008;4.530;2023-06-14T02:14:24;5.63;;;5.63;;
73132;SDS011;61320;52.008;4.530;2023-06-14T02:16:50;5.84;;;5.84;;
73132;SDS011;61320;52.008;4.530;2023-06-14T02:19:16;5.76;;;5.76;;
73132;SDS011;61320;52.008;4.530;2023-06-14T02:21:43;5.45;;;5.45;;
73132;SDS011;61320;52.008;4.530;2023-06-14T02:24:09;5.63;;;5.63;;
73132;SDS011;61320;52.008;4.530;2023-06-14T02:26:35;5.76;;;5.76;;
73132;SDS011;61320;52.008;4.530;2023-06-14T02:29:03;5.56;;;5.56;;
73132;SDS011;61320;52.008;4.530;2023-06-14T02:31:29;5.36;;;5.36;;
73132;SDS011;61320;52.008;4.530;2023-06-14T02:33:54;5.79;;;5.79;;
73132;SDS011;61320;52.008;4.530;2023-06-14T02:36:20;5.79;;;5.79;;
73132;SDS011;61320;52.008;4.530;2023-06-14T02:38:45;5.38;;;5.38;;
73132;SDS011;61320;52.008;4.530;2023-06-14T02:41:11;5.60;;;5.60;;
73132;SDS011;61320;52.008;4.530;2023-06-14T02:43:37;5.42;;;5.42;;
73132;SDS011;61320;52.008;4.530;2023-06-14T02:46:03;5.45;;;5.45;;
73132;SDS011;61320;52.008;4.530;2023-06-14T02:48:29;5.44;;;5.44;;
73132;SDS011;61320;52.008;4.530;2023-06-14T02:50:55;5.68;;;5.68;;
73132;SDS011;61320;52.008;4.530;2023-06-14T02:53:21;5.75;;;5.75;;
73132;SDS011;61320;52.008;4.530;2023-06-14T02:55:47;5.78;;;5.78;;
73132;SDS011;61320;52.008;4.530;2023-06-14T02:58:13;5.63;;;5.63;;
73132;SDS011;61320;52.008;4.530;2023-06-14T03:00:39;5.39;;;5.39;;
73132;SDS011;61320;52.008;4.530;2023-06-14T03:03:06;5.67;;;5.67;;
73132;SDS011;61320;52.008;4.530;2023-06-14T03:05:43;5.63;;;5.63;;
73132;SDS011;61320;52.008;4.530;2023-06-14T03:08:14;5.80;;;5.80;;
73132;SDS011;61320;52.008;4.530;2023-06-14T03:10:47;5.85;;;5.85;;
73132;SDS011;61320;52.008;4.530;2023-06-14T03:13:13;5.66;;;5.66;;
73132;SDS011;61320;52.008;4.530;2023-06-14T03:15:39;5.62;;;5.62;;
73132;SDS011;61320;52.008;4.530;2023-06-14T03:18:10;5.96;;;5.96;;
73132;SDS011;61320;52.008;4.530;2023-06-14T03:20:37;5.71;;;5.71;;
73132;SDS011;61320;52.008;4.530;2023-06-14T03:23:03;5.62;;;5.62;;
73132;SDS011;61320;52.008;4.530;2023-06-14T03:25:30;5.47;;;5.47;;
73132;SDS011;61320;52.008;4.530;2023-06-14T03:27:56;5.73;;;5.73;;
73132;SDS011;61320;52.008;4.530;2023-06-14T03:30:21;5.45;;;5.45;;
73132;SDS011;61320;52.008;4.530;2023-06-14T03:32:47;5.67;;;5.67;;
73132;SDS011;61320;52.008;4.530;2023-06-14T03:35:12;5.96;;;5.96;;
73132;SDS011;61320;52.008;4.530;2023-06-14T03:37:45;5.75;;;5.75;;
73132;SDS011;61320;52.008;4.530;2023-06-14T03:40:11;5.50;;;5.50;;
73132;SDS011;61320;52.008;4.530;2023-06-14T03:42:38;5.84;;;5.84;;
73132;SDS011;61320;52.008;4.530;2023-06-14T03:45:05;5.35;;;5.35;;
73132;SDS011;61320;52.008;4.530;2023-06-14T03:47:31;5.71;;;5.71;;
73132;SDS011;61320;52.008;4.530;2023-06-14T03:49:57;5.45;;;5.45;;
73132;SDS011;61320;52.008;4.530;2023-06-14T03:52:23;5.71;;;5.71;;
73132;SDS011;61320;52.008;4.530;2023-06-14T03:54:48;5.41;;;5.41;;
73132;SDS011;61320;52.008;4.530;2023-06-14T03:57:14;5.90;;;5.90;;
73132;SDS011;61320;52.008;4.530;2023-06-14T03:59:40;5.32;;;5.32;;
73132;SDS011;61320;52.008;4.530;2023-06-14T04:02:06;5.59;;;5.59;;
73132;SDS011;61320;52.008;4.530;2023-06-14T04:04:34;5.74;;;5.74;;
73132;SDS011;61320;52.008;4.530;2023-06-14T04:07:00;5.45;;;5.45;;
73132;SDS011;61320;52.008;4.530;2023-06-14T04:09:28;5.41;;;5.41;;
73132;SDS011;61320;52.008;4.530;2023-06-14T04:11:55;5.47;;;5.47;;
73132;SDS011;61320;52.008;4.530;2023-06-14T04:14:21;5.35;;;5.35;;
73132;SDS011;61320;52.008;4.530;2023-06-14T04:16:47;5.50;;;5.50;;
73132;SDS011;61320;52.008;4.530;2023-06-14T04:19:14;5.45;;;5.45;;
73132;SDS011;61320;52.008;4.530;2023-06-14T04:21:40;5.46;;;5.46;;
73132;SDS011;61320;52.008;4.530;2023-06-14T04:24:05;5.32;;;5.32;;
73132;SDS011;61320;52.008;4.530;2023-06-14T04:26:32;5.29;;;5.29;;
73132;SDS011;61320;52.008;4.530;2023-06-14T04:28:59;5.34;;;5.34;;
73132;SDS011;61320;52.008;4.530;2023-06-14T04:31:28;5.33;;;5.33;;
73132;SDS011;61320;52.008;4.530;2023-06-14T04:33:55;5.12;;;5.12;;
73132;SDS011;61320;52.008;4.530;2023-06-14T04:36:21;5.22;;;5.22;;
73132;SDS011;61320;52.008;4.530;2023-06-14T04:38:47;5.17;;;5.17;;
73132;SDS011;61320;52.008;4.530;2023-06-14T04:41:14;5.39;;;5.39;;
73132;SDS011;61320;52.008;4.530;2023-06-14T04:43:41;5.14;;;5.14;;
73132;SDS011;61320;52.008;4.530;2023-06-14T04:46:08;5.38;;;5.38;;
73132;SDS011;61320;52.008;4.530;2023-06-14T04:48:39;5.43;;;5.43;;
73132;SDS011;61320;52.008;4.530;2023-06-14T04:51:06;5.35;;;5.35;;
73132;SDS011;61320;52.008;4.530;2023-06-14T04:53:32;5.14;;;5.14;;
73132;SDS011;61320;52.008;4.530;2023-06-14T04:55:59;5.45;;;5.45;;
73132;SDS011;61320;52.008;4.530;2023-06-14T04:58:26;4.95;;;4.95;;
73132;SDS011;61320;52.008;4.530;2023-06-14T05:00:53;4.82;;;4.82;;
73132;SDS011;61320;52.008;4.530;2023-06-14T05:03:24;5.06;;;5.06;;
73132;SDS011;61320;52.008;4.530;2023-06-14T05:05:50;4.98;;;4.98;;
73132;SDS011;61320;52.008;4.530;2023-06-14T05:08:18;4.95;;;4.95;;
73132;SDS011;61320;52.008;4.530;2023-06-14T05:10:45;4.96;;;4.96;;
73132;SDS011;61320;52.008;4.530;2023-06-14T05:13:10;5.13;;;5.13;;
73132;SDS011;61320;52.008;4.530;2023-06-14T05:15:36;5.05;;;5.05;;
73132;SDS011;61320;52.008;4.530;2023-06-14T05:18:02;5.28;;;5.28;;
73132;SDS011;61320;52.008;4.530;2023-06-14T05:20:27;5.12;;;5.12;;
73132;SDS011;61320;52.008;4.530;2023-06-14T05:22:53;5.19;;;5.19;;
73132;SDS011;61320;52.008;4.530;2023-06-14T05:25:20;5.12;;;5.12;;
73132;SDS011;61320;52.008;4.530;2023-06-14T05:27:46;4.48;;;4.48;;
73132;SDS011;61320;52.008;4.530;2023-06-14T05:30:12;4.96;;;4.96;;
73132;SDS011;61320;52.008;4.530;2023-06-14T05:32:39;4.99;;;4.99;;
73132;SDS011;61320;52.008;4.530;2023-06-14T05:35:04;4.72;;;4.72;;
73132;SDS011;61320;52.008;4.530;2023-06-14T05:37:31;4.88;;;4.88;;
73132;SDS011;61320;52.008;4.530;2023-06-14T05:39:56;4.91;;;4.91;;
73132;SDS011;61320;52.008;4.530;2023-06-14T05:42:21;4.99;;;4.99;;
73132;SDS011;61320;52.008;4.530;2023-06-14T05:44:47;5.06;;;5.06;;
73132;SDS011;61320;52.008;4.530;2023-06-14T05:47:12;4.90;;;4.90;;
73132;SDS011;61320;52.008;4.530;2023-06-14T05:49:37;5.12;;;5.12;;
73132;SDS011;61320;52.008;4.530;2023-06-14T05:52:03;4.85;;;4.85;;
73132;SDS011;61320;52.008;4.530;2023-06-14T05:54:28;4.43;;;4.43;;
73132;SDS011;61320;52.008;4.530;2023-06-14T05:56:54;4.92;;;4.92;;
73132;SDS011;61320;52.008;4.530;2023-06-14T05:59:19;4.64;;;4.64;;
73132;SDS011;61320;52.008;4.530;2023-06-14T06:01:45;4.61;;;4.61;;
73132;SDS011;61320;52.008;4.530;2023-06-14T06:04:11;4.88;;;4.88;;
73132;SDS011;61320;52.008;4.530;2023-06-14T06:06:36;4.77;;;4.77;;
73132;SDS011;61320;52.008;4.530;2023-06-14T06:09:02;4.78;;;4.78;;
73132;SDS011;61320;52.008;4.530;2023-06-14T06:11:27;4.92;;;4.92;;
73132;SDS011;61320;52.008;4.530;2023-06-14T06:13:53;4.99;;;4.99;;
73132;SDS011;61320;52.008;4.530;2023-06-14T06:16:19;5.15;;;5.15;;
73132;SDS011;61320;52.008;4.530;2023-06-14T06:18:44;5.13;;;5.13;;
73132;SDS011;61320;52.008;4.530;2023-06-14T06:21:09;5.22;;;5.22;;
73132;SDS011;61320;52.008;4.530;2023-06-14T06:23:35;4.96;;;4.96;;
73132;SDS011;61320;52.008;4.530;2023-06-14T06:26:00;5.18;;;5.18;;
73132;SDS011;61320;52.008;4.530;2023-06-14T06:28:26;4.77;;;4.77;;
73132;SDS011;61320;52.008;4.530;2023-06-14T06:30:51;5.30;;;5.30;;
73132;SDS011;61320;52.008;4.530;2023-06-14T06:33:18;4.92;;;4.92;;
73132;SDS011;61320;52.008;4.530;2023-06-14T06:35:44;4.75;;;4.75;;
73132;SDS011;61320;52.008;4.530;2023-06-14T06:38:09;4.98;;;4.98;;
73132;SDS011;61320;52.008;4.530;2023-06-14T06:40:35;5.01;;;5.01;;
73132;SDS011;61320;52.008;4.530;2023-06-14T06:43:01;4.90;;;4.90;;
73132;SDS011;61320;52.008;4.530;2023-06-14T06:45:28;4.81;;;4.81;;
73132;SDS011;61320;52.008;4.530;2023-06-14T06:47:54;5.11;;;5.11;;
73132;SDS011;61320;52.008;4.530;2023-06-14T06:50:20;5.20;;;5.20;;
73132;SDS011;61320;52.008;4.530;2023-06-14T06:52:48;4.82;;;4.82;;
73132;SDS011;61320;52.008;4.530;2023-06-14T06:55:14;5.02;;;5.02;;
73132;SDS011;61320;52.008;4.530;2023-06-14T06:57:39;5.02;;;5.02;;
73132;SDS011;61320;52.008;4.530;2023-06-14T07:00:05;5.04;;;5.04;;
73132;SDS011;61320;52.008;4.530;2023-06-14T07:02:34;5.35;;;5.35;;
73132;SDS011;61320;52.008;4.530;2023-06-14T07:05:00;4.85;;;4.85;;
73132;SDS011;61320;52.008;4.530;2023-06-14T07:07:25;4.88;;;4.88;;
73132;SDS011;61320;52.008;4.530;2023-06-14T07:09:51;4.95;;;4.95;;
73132;SDS011;61320;52.008;4.530;2023-06-14T07:12:17;4.82;;;4.82;;
73132;SDS011;61320;52.008;4.530;2023-06-14T07:14:43;5.31;;;5.31;;
73132;SDS011;61320;52.008;4.530;2023-06-14T07:17:08;5.47;;;5.47;;
73132;SDS011;61320;52.008;4.530;2023-06-14T07:19:34;5.32;;;5.32;;
73132;SDS011;61320;52.008;4.530;2023-06-14T07:22:00;5.07;;;5.07;;
73132;SDS011;61320;52.008;4.530;2023-06-14T07:24:25;5.13;;;5.13;;
73132;SDS011;61320;52.008;4.530;2023-06-14T07:26:53;5.23;;;5.23;;
73132;SDS011;61320;52.008;4.530;2023-06-14T07:29:19;5.04;;;5.04;;
73132;SDS011;61320;52.008;4.530;2023-06-14T07:31:46;5.33;;;5.33;;
73132;SDS011;61320;52.008;4.530;2023-06-14T07:34:12;5.35;;;5.35;;
73132;SDS011;61320;52.008;4.530;2023-06-14T07:36:37;5.01;;;5.01;;
73132;SDS011;61320;52.008;4.530;2023-06-14T07:39:03;5.13;;;5.13;;
73132;SDS011;61320;52.008;4.530;2023-06-14T07:41:30;5.50;;;5.50;;
73132;SDS011;61320;52.008;4.530;2023-06-14T07:43:56;4.86;;;4.86;;
73132;SDS011;61320;52.008;4.530;2023-06-14T07:46:22;4.89;;;4.89;;
73132;SDS011;61320;52.008;4.530;2023-06-14T07:48:47;4.62;;;4.62;;
73132;SDS011;61320;52.008;4.530;2023-06-14T07:51:13;5.37;;;5.37;;
73132;SDS011;61320;52.008;4.530;2023-06-14T07:53:39;4.93;;;4.93;;
73132;SDS011;61320;52.008;4.530;2023-06-14T07:56:06;5.02;;;5.02;;
73132;SDS011;61320;52.008;4.530;2023-06-14T07:58:31;5.16;;;5.16;;
73132;SDS011;61320;52.008;4.530;2023-06-14T08:00:57;5.01;;;5.01;;
73132;SDS011;61320;52.008;4.530;2023-06-14T08:03:22;4.91;;;4.91;;
73132;SDS011;61320;52.008;4.530;2023-06-14T08:05:47;5.32;;;5.32;;
73132;SDS011;61320;52.008;4.530;2023-06-14T08:08:13;5.34;;;5.34;;
73132;SDS011;61320;52.008;4.530;2023-06-14T08:10:39;5.27;;;5.27;;
73132;SDS011;61320;52.008;4.530;2023-06-14T08:13:05;5.06;;;5.06;;
73132;SDS011;61320;52.008;4.530;2023-06-14T08:15:30;5.13;;;5.13;;
73132;SDS011;61320;52.008;4.530;2023-06-14T08:17:56;5.06;;;5.06;;
73132;SDS011;61320;52.008;4.530;2023-06-14T08:20:22;5.28;;;5.28;;
73132;SDS011;61320;52.008;4.530;2023-06-14T08:22:49;5.00;;;5.00;;
73132;SDS011;61320;52.008;4.530;2023-06-14T08:25:17;5.31;;;5.31;;
73132;SDS011;61320;52.008;4.530;2023-06-14T08:27:43;5.15;;;5.15;;
73132;SDS011;61320;52.008;4.530;2023-06-14T08:30:08;5.00;;;5.00;;
73132;SDS011;61320;52.008;4.530;2023-06-14T08:32:35;5.15;;;5.15;;
73132;SDS011;61320;52.008;4.530;2023-06-14T08:35:00;5.19;;;5.19;;
73132;SDS011;61320;52.008;4.530;2023-06-14T08:37:26;5.11;;;5.11;;
73132;SDS011;61320;52.008;4.530;2023-06-14T08:39:52;5.06;;;5.06;;
73132;SDS011;61320;52.008;4.530;2023-06-14T08:42:17;5.01;;;5.01;;
73132;SDS011;61320;52.008;4.530;2023-06-14T08:44:46;5.08;;;5.08;;
73132;SDS011;61320;52.008;4.530;2023-06-14T08:47:11;5.16;;;5.16;;
73132;SDS011;61320;52.008;4.530;2023-06-14T08:49:38;4.92;;;4.92;;
73132;SDS011;61320;52.008;4.530;2023-06-14T08:52:10;7.02;;;7.02;;
73132;SDS011;61320;52.008;4.530;2023-06-14T08:54:37;9.56;;;9.56;;
73132;SDS011;61320;52.008;4.530;2023-06-14T08:57:09;11.60;;;11.60;;
73132;SDS011;61320;52.008;4.530;2023-06-14T08:59:38;5.87;;;5.87;;
73132;SDS011;61320;52.008;4.530;2023-06-14T09:02:14;5.39;;;5.39;;
73132;SDS011;61320;52.008;4.530;2023-06-14T09:04:43;4.90;;;4.90;;
73132;SDS011;61320;52.008;4.530;2023-06-14T09:07:09;4.67;;;4.67;;
73132;SDS011;61320;52.008;4.530;2023-06-14T09:09:39;4.67;;;4.67;;
73132;SDS011;61320;52.008;4.530;2023-06-14T09:12:15;18.45;;;18.45;;
73132;SDS011;61320;52.008;4.530;2023-06-14T09:14:41;14.62;;;14.62;;
73132;SDS011;61320;52.008;4.530;2023-06-14T09:17:07;5.02;;;5.02;;
73132;SDS011;61320;52.008;4.530;2023-06-14T09:19:33;4.64;;;4.64;;
73132;SDS011;61320;52.008;4.530;2023-06-14T09:22:00;4.50;;;4.50;;
73132;SDS011;61320;52.008;4.530;2023-06-14T09:24:25;4.48;;;4.48;;
73132;SDS011;61320;52.008;4.530;2023-06-14T09:26:51;4.30;;;4.30;;
73132;SDS011;61320;52.008;4.530;2023-06-14T09:29:17;4.24;;;4.24;;
73132;SDS011;61320;52.008;4.530;2023-06-14T09:31:46;4.01;;;4.01;;
73132;SDS011;61320;52.008;4.530;2023-06-14T09:34:12;4.47;;;4.47;;
73132;SDS011;61320;52.008;4.530;2023-06-14T09:36:39;3.92;;;3.92;;
73132;SDS011;61320;52.008;4.530;2023-06-14T09:39:07;4.08;;;4.08;;
73132;SDS011;61320;52.008;4.530;2023-06-14T09:41:36;3.85;;;3.85;;
73132;SDS011;61320;52.008;4.530;2023-06-14T09:44:04;3.93;;;3.93;;
73132;SDS011;61320;52.008;4.530;2023-06-14T09:46:31;3.89;;;3.89;;
73132;SDS011;61320;52.008;4.530;2023-06-14T09:48:59;3.80;;;3.80;;
73132;SDS011;61320;52.008;4.530;2023-06-14T09:51:26;3.74;;;3.74;;
73132;SDS011;61320;52.008;4.530;2023-06-14T09:53:53;3.74;;;3.74;;
73132;SDS011;61320;52.008;4.530;2023-06-14T09:56:23;3.78;;;3.78;;
73132;SDS011;61320;52.008;4.530;2023-06-14T09:58:54;4.03;;;4.03;;
73132;SDS011;61320;52.008;4.530;2023-06-14T10:01:22;3.81;;;3.81;;
73132;SDS011;61320;52.008;4.530;2023-06-14T10:03:55;3.55;;;3.55;;
73132;SDS011;61320;52.008;4.530;2023-06-14T10:06:26;3.66;;;3.66;;
73132;SDS011;61320;52.008;4.530;2023-06-14T10:08:56;3.83;;;3.83;;
73132;SDS011;61320;52.008;4.530;2023-06-14T10:11:28;3.66;;;3.66;;
73132;SDS011;61320;52.008;4.530;2023-06-14T10:13:54;3.59;;;3.59;;
73132;SDS011;61320;52.008;4.530;2023-06-14T10:16:56;5.50;;;5.50;;
73132;SDS011;61320;52.008;4.530;2023-06-14T10:19:22;3.44;;;3.44;;
73132;SDS011;61320;52.008;4.530;2023-06-14T10:22:17;3.20;;;3.20;;
73132;SDS011;61320;52.008;4.530;2023-06-14T10:24:50;3.01;;;3.01;;
73132;SDS011;61320;52.008;4.530;2023-06-14T10:27:15;3.23;;;3.23;;
73132;SDS011;61320;52.008;4.530;2023-06-14T10:32:23;3.30;;;3.30;;
73132;SDS011;61320;52.008;4.530;2023-06-14T10:34:53;3.28;;;3.28;;
73132;SDS011;61320;52.008;4.530;2023-06-14T10:37:20;3.22;;;3.22;;
73132;SDS011;61320;52.008;4.530;2023-06-14T10:39:46;3.07;;;3.07;;
73132;SDS011;61320;52.008;4.530;2023-06-14T10:42:12;2.75;;;2.75;;
73132;SDS011;61320;52.008;4.530;2023-06-14T10:44:39;2.93;;;2.93;;
73132;SDS011;61320;52.008;4.530;2023-06-14T10:47:10;2.92;;;2.92;;
73132;SDS011;61320;52.008;4.530;2023-06-14T10:52:12;2.76;;;2.76;;
73132;SDS011;61320;52.008;4.530;2023-06-14T10:54:55;2.58;;;2.58;;
73132;SDS011;61320;52.008;4.530;2023-06-14T10:57:51;2.60;;;2.60;;
73132;SDS011;61320;52.008;4.530;2023-06-14T11:00:18;2.35;;;2.35;;
73132;SDS011;61320;52.008;4.530;2023-06-14T11:10:38;2.39;;;2.39;;
73132;SDS011;61320;52.008;4.530;2023-06-14T11:13:08;2.22;;;2.22;;
73132;SDS011;61320;52.008;4.530;2023-06-14T11:15:34;2.06;;;2.06;;
73132;SDS011;61320;52.008;4.530;2023-06-14T11:18:02;2.02;;;2.02;;
73132;SDS011;61320;52.008;4.530;2023-06-14T11:20:31;2.18;;;2.18;;
73132;SDS011;61320;52.008;4.530;2023-06-14T11:22:58;2.01;;;2.01;;
73132;SDS011;61320;52.008;4.530;2023-06-14T11:25:24;2.19;;;2.19;;
73132;SDS011;61320;52.008;4.530;2023-06-14T11:27:51;2.13;;;2.13;;
73132;SDS011;61320;52.008;4.530;2023-06-14T11:30:17;2.15;;;2.15;;
73132;SDS011;61320;52.008;4.530;2023-06-14T11:32:47;2.00;;;2.00;;
73132;SDS011;61320;52.008;4.530;2023-06-14T11:35:13;2.32;;;2.32;;
73132;SDS011;61320;52.008;4.530;2023-06-14T11:37:39;2.16;;;2.16;;
73132;SDS011;61320;52.008;4.530;2023-06-14T11:40:07;2.00;;;2.00;;
73132;SDS011;61320;52.008;4.530;2023-06-14T11:42:43;2.15;;;2.15;;
73132;SDS011;61320;52.008;4.530;2023-06-14T11:45:10;2.07;;;2.07;;
73132;SDS011;61320;52.008;4.530;2023-06-14T11:47:38;2.22;;;2.22;;
73132;SDS011;61320;52.008;4.530;2023-06-14T11:50:05;2.16;;;2.16;;
73132;SDS011;61320;52.008;4.530;2023-06-14T11:52:31;1.88;;;1.88;;
73132;SDS011;61320;52.008;4.530;2023-06-14T11:54:57;2.10;;;2.10;;
73132;SDS011;61320;52.008;4.530;2023-06-14T11:57:23;1.98;;;1.98;;
73132;SDS011;61320;52.008;4.530;2023-06-14T11:59:50;2.30;;;2.30;;
73132;SDS011;61320;52.008;4.530;2023-06-14T12:02:16;1.93;;;1.93;;
73132;SDS011;61320;52.008;4.530;2023-06-14T12:04:44;2.05;;;2.05;;
73132;SDS011;61320;52.008;4.530;2023-06-14T12:07:14;2.16;;;2.16;;
73132;SDS011;61320;52.008;4.530;2023-06-14T12:09:42;2.29;;;2.29;;
73132;SDS011;61320;52.008;4.530;2023-06-14T12:12:33;2.18;;;2.18;;
73132;SDS011;61320;52.008;4.530;2023-06-14T12:15:02;1.91;;;1.91;;
73132;SDS011;61320;52.008;4.530;2023-06-14T12:17:31;2.12;;;2.12;;
73132;SDS011;61320;52.008;4.530;2023-06-14T12:19:58;2.00;;;2.00;;
73132;SDS011;61320;52.008;4.530;2023-06-14T12:22:23;2.02;;;2.02;;
73132;SDS011;61320;52.008;4.530;2023-06-14T12:24:49;2.30;;;2.30;;
73132;SDS011;61320;52.008;4.530;2023-06-14T12:27:15;2.02;;;2.02;;
73132;SDS011;61320;52.008;4.530;2023-06-14T12:29:45;2.32;;;2.32;;
73132;SDS011;61320;52.008;4.530;2023-06-14T12:32:11;2.18;;;2.18;;
73132;SDS011;61320;52.008;4.530;2023-06-14T12:34:36;2.33;;;2.33;;
73132;SDS011;61320;52.008;4.530;2023-06-14T12:37:02;2.43;;;2.43;;
73132;SDS011;61320;52.008;4.530;2023-06-14T12:39:29;2.26;;;2.26;;
73132;SDS011;61320;52.008;4.530;2023-06-14T12:41:56;2.25;;;2.25;;
73132;SDS011;61320;52.008;4.530;2023-06-14T12:44:22;2.24;;;2.24;;
73132;SDS011;61320;52.008;4.530;2023-06-14T12:46:48;2.61;;;2.61;;
73132;SDS011;61320;52.008;4.530;2023-06-14T12:49:16;2.42;;;2.42;;
73132;SDS011;61320;52.008;4.530;2023-06-14T12:51:42;2.21;;;2.21;;
73132;SDS011;61320;52.008;4.530;2023-06-14T12:54:07;3.14;;;3.14;;
73132;SDS011;61320;52.008;4.530;2023-06-14T12:56:33;12.53;;;12.53;;
73132;SDS011;61320;52.008;4.530;2023-06-14T12:58:58;37.54;;;37.53;;
73132;SDS011;61320;52.008;4.530;2023-06-14T13:01:24;10.81;;;10.81;;
73132;SDS011;61320;52.008;4.530;2023-06-14T13:03:49;7.92;;;7.92;;
73132;SDS011;61320;52.008;4.530;2023-06-14T13:06:20;6.38;;;6.38;;
73132;SDS011;61320;52.008;4.530;2023-06-14T13:08:47;4.50;;;4.50;;
73132;SDS011;61320;52.008;4.530;2023-06-14T13:11:12;3.76;;;3.76;;
73132;SDS011;61320;52.008;4.530;2023-06-14T13:13:37;2.54;;;2.54;;
73132;SDS011;61320;52.008;4.530;2023-06-14T13:16:03;2.14;;;2.14;;
73132;SDS011;61320;52.008;4.530;2023-06-14T13:18:29;2.05;;;2.05;;
73132;SDS011;61320;52.008;4.530;2023-06-14T13:20:54;2.11;;;2.11;;
73132;SDS011;61320;52.008;4.530;2023-06-14T13:23:20;2.26;;;2.26;;
73132;SDS011;61320;52.008;4.530;2023-06-14T13:25:45;2.16;;;2.16;;
73132;SDS011;61320;52.008;4.530;2023-06-14T13:28:11;2.18;;;2.18;;
73132;SDS011;61320;52.008;4.530;2023-06-14T13:30:36;2.26;;;2.26;;
73132;SDS011;61320;52.008;4.530;2023-06-14T13:33:02;2.43;;;2.43;;
73132;SDS011;61320;52.008;4.530;2023-06-14T13:35:28;2.32;;;2.32;;
73132;SDS011;61320;52.008;4.530;2023-06-14T13:37:54;2.05;;;2.05;;
73132;SDS011;61320;52.008;4.530;2023-06-14T13:40:20;2.27;;;2.27;;
73132;SDS011;61320;52.008;4.530;2023-06-14T13:42:46;2.54;;;2.54;;
73132;SDS011;61320;52.008;4.530;2023-06-14T13:45:12;2.38;;;2.38;;
73132;SDS011;61320;52.008;4.530;2023-06-14T13:47:38;2.25;;;2.25;;
73132;SDS011;61320;52.008;4.530;2023-06-14T13:50:03;2.15;;;2.15;;
73132;SDS011;61320;52.008;4.530;2023-06-14T13:52:30;2.03;;;2.03;;
73132;SDS011;61320;52.008;4.530;2023-06-14T13:54:55;2.44;;;2.44;;
73132;SDS011;61320;52.008;4.530;2023-06-14T13:57:21;2.33;;;2.33;;
73132;SDS011;61320;52.008;4.530;2023-06-14T13:59:46;2.31;;;2.31;;
73132;SDS011;61320;52.008;4.530;2023-06-14T14:02:12;2.50;;;2.50;;
73132;SDS011;61320;52.008;4.530;2023-06-14T14:04:38;2.28;;;2.28;;
73132;SDS011;61320;52.008;4.530;2023-06-14T14:07:05;2.26;;;2.26;;
73132;SDS011;61320;52.008;4.530;2023-06-14T14:09:34;2.22;;;2.22;;
73132;SDS011;61320;52.008;4.530;2023-06-14T14:12:00;2.25;;;2.25;;
73132;SDS011;61320;52.008;4.530;2023-06-14T14:14:30;2.34;;;2.34;;
73132;SDS011;61320;52.008;4.530;2023-06-14T14:16:57;2.33;;;2.33;;
73132;SDS011;61320;52.008;4.530;2023-06-14T14:19:23;2.49;;;2.49;;
73132;SDS011;61320;52.008;4.530;2023-06-14T14:21:49;2.30;;;2.30;;
73132;SDS011;61320;52.008;4.530;2023-06-14T14:24:14;2.30;;;2.30;;
73132;SDS011;61320;52.008;4.530;2023-06-14T14:26:41;2.43;;;2.43;;
73132;SDS011;61320;52.008;4.530;2023-06-14T14:29:07;2.40;;;2.40;;
73132;SDS011;61320;52.008;4.530;2023-06-14T14:31:33;2.22;;;2.22;;
73132;SDS011;61320;52.008;4.530;2023-06-14T14:33:59;2.29;;;2.29;;
73132;SDS011;61320;52.008;4.530;2023-06-14T14:36:24;2.25;;;2.25;;
73132;SDS011;61320;52.008;4.530;2023-06-14T14:38:50;2.16;;;2.16;;
73132;SDS011;61320;52.008;4.530;2023-06-14T14:41:17;2.36;;;2.36;;
73132;SDS011;61320;52.008;4.530;2023-06-14T14:43:42;2.20;;;2.20;;
73132;SDS011;61320;52.008;4.530;2023-06-14T14:46:08;2.20;;;2.20;;
73132;SDS011;61320;52.008;4.530;2023-06-14T14:48:33;2.46;;;2.46;;
73132;SDS011;61320;52.008;4.530;2023-06-14T14:50:59;2.27;;;2.27;;
73132;SDS011;61320;52.008;4.530;2023-06-14T14:53:24;2.15;;;2.15;;
73132;SDS011;61320;52.008;4.530;2023-06-14T14:55:50;2.13;;;2.13;;
73132;SDS011;61320;52.008;4.530;2023-06-14T14:58:15;2.25;;;2.25;;
73132;SDS011;61320;52.008;4.530;2023-06-14T15:00:43;2.18;;;2.18;;
73132;SDS011;61320;52.008;4.530;2023-06-14T15:03:13;2.33;;;2.33;;